Royal Prince — WCX8037 — position and weather

sailwx.info

Track history (hours):
 
Tides and Currents Weather Stations Pressure Air Temp Water Temp Dewpoint Dewpoint Depression Visibility Wind Speed Wind Dir Waves Ship Positions

Royal Prince

Owner: Golden Gate Scenic Steamship Corp, SAN FRANCISCO, CA. More information available from US FCC via Universal Licensing System and Coast Guard Vessel Documentation Center.

Last reported at 2015-Aug-28 02:33 UTC. Time now 2015-Aug-28 12:44 UTC.
Position N 37°49' W 122°25'.

Length 28 m; draft 2.3 m.

Type: Passenger vessel. MMSI: 366975760.

Date/timePositionNaut miles runAvg speedWind from/ knotsBaromVisibWave heightAir tempDewpointWater temp
2015-Aug-28 02:33N 37°49' W 122°25'2 2.2
2015-Aug-28 01:33N 37°49' W 122°28'1 0.7
2015-Aug-28 00:33N 37°50' W 122°27'2 2.2
2015-Aug-27 23:34N 37°49' W 122°25'1 0.6
2015-Aug-27 22:33N 37°49' W 122°25'0 0.0
2015-Aug-27 21:33N 37°49' W 122°25'3 3.0
2015-Aug-27 20:33N 37°49' W 122°29'3 3.0
2015-Aug-27 19:33N 37°49' W 122°25'2 2.4
2015-Aug-27 18:33N 37°49' W 122°28'1 0.6
2015-Aug-27 17:33N 37°49' W 122°28'2 2.4
2015-Aug-27 16:33N 37°49' W 122°25'0 0.3
2015-Aug-27 15:33N 37°49' W 122°25'0 0.0
2015-Aug-27 14:34N 37°49' W 122°25'0 0.0
2015-Aug-26 14:29N 37°49' W 122°25'0 0.0
2015-Aug-25 15:33N 37°49' W 122°25'  
2015-Aug-23 04:33N 37°49' W 122°25'3 3.4
2015-Aug-23 03:33N 37°51' W 122°28'3 3.4
2015-Aug-23 02:33N 37°49' W 122°25'0 0.0
2015-Aug-23 01:33N 37°49' W 122°25'0 0.0
2015-Aug-23 00:33N 37°49' W 122°25'0 0.0
2015-Aug-22 23:33N 37°49' W 122°25'0 0.0
2015-Aug-22 22:33N 37°49' W 122°25'0 0.0
2015-Aug-22 21:33N 37°49' W 122°25'2 2.2
2015-Aug-22 20:33N 37°49' W 122°28'2 2.2
2015-Aug-22 19:33N 37°49' W 122°25'2 1.9
2015-Aug-22 18:33N 37°49' W 122°27'1 0.7
2015-Aug-22 17:33N 37°50' W 122°27'2 2.1
2015-Aug-22 16:33N 37°49' W 122°25'0 0.0
2015-Aug-22 02:33N 37°49' W 122°25'3 2.6
2015-Aug-22 01:33N 37°49' W 122°28'1 1.1
2015-Aug-22 00:33N 37°50' W 122°27'2 1.9
2015-Aug-21 23:34N 37°49' W 122°25'1 0.7
2015-Aug-21 22:33N 37°49' W 122°25'0 0.0
2015-Aug-21 21:33N 37°49' W 122°25'3 2.6
2015-Aug-21 20:33N 37°49' W 122°28'3 2.6
2015-Aug-21 19:33N 37°49' W 122°25'2 1.9
2015-Aug-21 18:33N 37°49' W 122°27'1 1.0
2015-Aug-21 17:34N 37°50' W 122°27'2 0.1
2015-Aug-21 02:32N 37°49' W 122°25'3 2.8
2015-Aug-21 01:34N 37°49' W 122°28'2 1.5
2015-Aug-21 00:34N 37°50' W 122°27'1 1.5
2015-Aug-20 23:34N 37°49' W 122°25'1 0.8
2015-Aug-20 22:34N 37°49' W 122°25'0 0.0
2015-Aug-20 21:34N 37°49' W 122°25'2 2.5
2015-Aug-20 20:34N 37°49' W 122°28'2 2.5
2015-Aug-20 19:34N 37°49' W 122°25'2 2.2
2015-Aug-20 18:34N 37°49' W 122°28'1 0.7
2015-Aug-20 17:33N 37°50' W 122°27'2 0.1
2015-Aug-20 02:33N 37°49' W 122°25'3 2.5
2015-Aug-20 01:33N 37°49' W 122°28'1 1.2
2015-Aug-20 00:33N 37°50' W 122°27'1 1.5
2015-Aug-19 23:33N 37°49' W 122°25'1 0.8
2015-Aug-19 22:33N 37°49' W 122°25'0 0.1
2015-Aug-19 21:33N 37°49' W 122°25'3 2.6
2015-Aug-19 20:33N 37°49' W 122°28'3 2.6
2015-Aug-19 19:33N 37°49' W 122°25'2 2.1
2015-Aug-19 18:33N 37°49' W 122°28'1 0.8
2015-Aug-19 17:33N 37°49' W 122°27'2 0.1
2015-Aug-19 02:24N 37°49' W 122°25'2 2.5
2015-Aug-19 01:33N 37°49' W 122°28'1 0.9
2015-Aug-19 00:33N 37°50' W 122°27'1 1.3
2015-Aug-18 23:33N 37°50' W 122°25'1 1.1
2015-Aug-18 22:33N 37°49' W 122°25'0 0.0
2015-Aug-18 21:33N 37°49' W 122°25'3 3.1
2015-Aug-18 20:33N 37°49' W 122°29'3 3.0
2015-Aug-18 19:33N 37°49' W 122°25'1 1.5
2015-Aug-18 18:33N 37°49' W 122°27'1 1.2
2015-Aug-18 17:33N 37°49' W 122°28'3 2.6
2015-Aug-18 16:33N 37°49' W 122°25'0 0.0
2015-Aug-18 15:33N 37°49' W 122°25'  
Track history (hours):
 
Tides and Currents Weather Stations Pressure Air Temp Water Temp Dewpoint Dewpoint Depression Visibility Wind Speed Wind Dir Waves Ship Positions

Royal Prince

Owner: Golden Gate Scenic Steamship Corp, SAN FRANCISCO, CA. More information available from US FCC via Universal Licensing System and Coast Guard Vessel Documentation Center.

Last reported at 2015-Aug-28 02:33 UTC. Time now 2015-Aug-28 12:44 UTC.
Position N 37°49' W 122°25'.

Length 28 m; draft 2.3 m.

Type: Passenger vessel. MMSI: 366975760.

Date/timePositionNaut miles runAvg speedWind from/ knotsBaromVisibWave heightAir tempDewpointWater temp
2015-Aug-28 02:33N 37°49' W 122°25'2 2.2
2015-Aug-28 01:33N 37°49' W 122°28'1 0.7
2015-Aug-28 00:33N 37°50' W 122°27'2 2.2
2015-Aug-27 23:34N 37°49' W 122°25'1 0.6
2015-Aug-27 22:33N 37°49' W 122°25'0 0.0
2015-Aug-27 21:33N 37°49' W 122°25'3 3.0
2015-Aug-27 20:33N 37°49' W 122°29'3 3.0
2015-Aug-27 19:33N 37°49' W 122°25'2 2.4
2015-Aug-27 18:33N 37°49' W 122°28'1 0.6
2015-Aug-27 17:33N 37°49' W 122°28'2 2.4
2015-Aug-27 16:33N 37°49' W 122°25'0 0.3
2015-Aug-27 15:33N 37°49' W 122°25'0 0.0
2015-Aug-27 14:34N 37°49' W 122°25'0 0.0
2015-Aug-26 14:29N 37°49' W 122°25'0 0.0
2015-Aug-25 15:33N 37°49' W 122°25'  
2015-Aug-23 04:33N 37°49' W 122°25'3 3.4
2015-Aug-23 03:33N 37°51' W 122°28'3 3.4
2015-Aug-23 02:33N 37°49' W 122°25'0 0.0
2015-Aug-23 01:33N 37°49' W 122°25'0 0.0
2015-Aug-23 00:33N 37°49' W 122°25'0 0.0
2015-Aug-22 23:33N 37°49' W 122°25'0 0.0
2015-Aug-22 22:33N 37°49' W 122°25'0 0.0
2015-Aug-22 21:33N 37°49' W 122°25'2 2.2
2015-Aug-22 20:33N 37°49' W 122°28'2 2.2
2015-Aug-22 19:33N 37°49' W 122°25'2 1.9
2015-Aug-22 18:33N 37°49' W 122°27'1 0.7
2015-Aug-22 17:33N 37°50' W 122°27'2 2.1
2015-Aug-22 16:33N 37°49' W 122°25'0 0.0
2015-Aug-22 02:33N 37°49' W 122°25'3 2.6
2015-Aug-22 01:33N 37°49' W 122°28'1 1.1
2015-Aug-22 00:33N 37°50' W 122°27'2 1.9
2015-Aug-21 23:34N 37°49' W 122°25'1 0.7
2015-Aug-21 22:33N 37°49' W 122°25'0 0.0
2015-Aug-21 21:33N 37°49' W 122°25'3 2.6
2015-Aug-21 20:33N 37°49' W 122°28'3 2.6
2015-Aug-21 19:33N 37°49' W 122°25'2 1.9
2015-Aug-21 18:33N 37°49' W 122°27'1 1.0
2015-Aug-21 17:34N 37°50' W 122°27'2 0.1
2015-Aug-21 02:32N 37°49' W 122°25'3 2.8
2015-Aug-21 01:34N 37°49' W 122°28'2 1.5
2015-Aug-21 00:34N 37°50' W 122°27'1 1.5
2015-Aug-20 23:34N 37°49' W 122°25'1 0.8
2015-Aug-20 22:34N 37°49' W 122°25'0 0.0
2015-Aug-20 21:34N 37°49' W 122°25'2 2.5
2015-Aug-20 20:34N 37°49' W 122°28'2 2.5
2015-Aug-20 19:34N 37°49' W 122°25'2 2.2
2015-Aug-20 18:34N 37°49' W 122°28'1 0.7
2015-Aug-20 17:33N 37°50' W 122°27'2 0.1
2015-Aug-20 02:33N 37°49' W 122°25'3 2.5
2015-Aug-20 01:33N 37°49' W 122°28'1 1.2
2015-Aug-20 00:33N 37°50' W 122°27'1 1.5
2015-Aug-19 23:33N 37°49' W 122°25'1 0.8
2015-Aug-19 22:33N 37°49' W 122°25'0 0.1
2015-Aug-19 21:33N 37°49' W 122°25'3 2.6
2015-Aug-19 20:33N 37°49' W 122°28'3 2.6
2015-Aug-19 19:33N 37°49' W 122°25'2 2.1
2015-Aug-19 18:33N 37°49' W 122°28'1 0.8
2015-Aug-19 17:33N 37°49' W 122°27'2 0.1
2015-Aug-19 02:24N 37°49' W 122°25'2 2.5
2015-Aug-19 01:33N 37°49' W 122°28'1 0.9
2015-Aug-19 00:33N 37°50' W 122°27'1 1.3
2015-Aug-18 23:33N 37°50' W 122°25'1 1.1
2015-Aug-18 22:33N 37°49' W 122°25'0 0.0
2015-Aug-18 21:33N 37°49' W 122°25'3 3.1
2015-Aug-18 20:33N 37°49' W 122°29'3 3.0
2015-Aug-18 19:33N 37°49' W 122°25'1 1.5
2015-Aug-18 18:33N 37°49' W 122°27'1 1.2
2015-Aug-18 17:33N 37°49' W 122°28'3 2.6
2015-Aug-18 16:33N 37°49' W 122°25'0 0.0
2015-Aug-18 15:33N 37°49' W 122°25'  

Dump ship's entire track history